Time;durP1;ratioP1;P1;durP2;ratioP2;P2;SDS_P1;SDS_P2;PMS_P1;PMS_P2;Temp;Humidity;BMP_temperature;BMP_pressure;BME280_temperature;BME280_humidity;BME280_pressure;Samples;Min_cycle;Max_cycle;Signal;HPM_P1;HPM_P2
2024/04/07 00:00:21;;;;;;;5.50;4.20;;;;;;;10.80;81.68;99520.21;106850;1267;72611;-38
2024/04/07 00:02:50;;;;;;;6.20;4.10;;;;;;;10.74;81.66;99527.29;106823;1263;67800;-38
2024/04/07 00:05:22;;;;;;;6.20;3.90;;;;;;;10.68;81.93;99531.20;106809;1263;72706;-38
2024/04/07 00:07:49;;;;;;;5.60;3.50;;;;;;;10.66;81.89;99540.27;106880;1263;60514;-38
2024/04/07 00:10:16;;;;;;;4.30;3.60;;;;;;;10.68;81.78;99543.35;106848;1262;60418;-38
2024/04/07 00:12:44;;;;;;;4.90;4.10;;;;;;;10.73;81.48;99545.92;106812;1263;72612;-38
2024/04/07 00:15:11;;;;;;;4.60;3.70;;;;;;;10.71;81.40;99549.68;106873;1267;66627;-38
2024/04/07 00:17:39;;;;;;;5.60;3.80;;;;;;;10.68;81.39;99552.33;106859;1264;72675;-38
2024/04/07 00:20:07;;;;;;;3.90;3.00;;;;;;;10.63;81.44;99556.64;106838;1263;60437;-39
2024/04/07 00:22:34;;;;;;;5.00;3.60;;;;;;;10.60;81.40;99557.65;106920;1262;60450;-38
2024/04/07 00:25:03;;;;;;;5.40;3.40;;;;;;;10.61;81.29;99561.86;106880;1267;72603;-38
2024/04/07 00:27:30;;;;;;;5.90;3.60;;;;;;;10.64;80.83;99565.19;106848;1263;66601;-39
2024/04/07 00:29:58;;;;;;;4.20;3.30;;;;;;;10.56;81.13;99570.05;106851;1263;71406;-39
2024/04/07 00:32:25;;;;;;;7.90;3.90;;;;;;;10.50;81.25;99565.50;106848;1264;60495;-39
2024/04/07 00:34:53;;;;;;;4.60;3.50;;;;;;;10.45;81.02;99560.03;106889;1262;60408;-37
2024/04/07 00:37:21;;;;;;;6.20;3.40;;;;;;;10.39;80.76;99561.24;106887;1262;73933;-37
2024/04/07 00:39:48;;;;;;;3.80;2.90;;;;;;;10.39;80.49;99565.02;106928;1264;66571;-38
2024/04/07 00:42:16;;;;;;;6.20;3.40;;;;;;;10.41;80.34;99566.60;106858;1264;72696;-37
2024/04/07 00:44:45;;;;;;;5.20;3.50;;;;;;;10.39;80.36;99567.12;106844;1262;61081;-38
2024/04/07 00:47:13;;;;;;;5.90;3.60;;;;;;;10.35;80.29;99569.66;106882;1263;60137;-37
2024/04/07 00:49:41;;;;;;;3.30;2.70;;;;;;;10.31;80.28;99581.02;106784;1262;74127;-37
2024/04/07 00:52:08;;;;;;;4.70;3.20;;;;;;;10.25;80.16;99585.82;106896;1262;67721;-37
2024/04/07 00:54:35;;;;;;;5.00;3.20;;;;;;;10.23;80.37;99591.75;106844;1264;72701;-37
2024/04/07 00:57:04;;;;;;;4.80;3.30;;;;;;;10.23;80.48;99595.75;106842;1263;60424;-37
2024/04/07 00:59:31;;;;;;;4.10;3.30;;;;;;;10.19;80.66;99601.55;106918;1263;60361;-38
2024/04/07 01:01:58;;;;;;;4.20;3.20;;;;;;;10.14;80.83;99602.79;106856;1263;73859;-38
2024/04/07 01:04:26;;;;;;;4.50;3.30;;;;;;;10.11;80.65;99599.33;106847;1267;66298;-38
2024/04/07 01:06:53;;;;;;;3.50;2.90;;;;;;;10.07;80.61;99599.52;106827;1263;71399;-38
2024/04/07 01:09:21;;;;;;;4.70;2.70;;;;;;;10.09;80.42;99598.10;106814;1263;60451;-38
2024/04/07 01:11:48;;;;;;;4.00;2.50;;;;;;;10.12;80.03;99599.34;106853;1263;60521;-37
2024/04/07 01:14:16;;;;;;;5.50;3.00;;;;;;;10.02;80.17;99595.63;106840;1264;73198;-38
2024/04/07 01:16:43;;;;;;;4.90;3.10;;;;;;;9.92;80.87;99601.70;106862;1264;67590;-38
2024/04/07 01:19:11;;;;;;;4.40;2.90;;;;;;;9.88;81.33;99602.53;106801;1264;72748;-38
2024/04/07 01:21:38;;;;;;;5.10;3.40;;;;;;;9.82;81.25;99590.08;106834;1263;60540;-38
2024/04/07 01:24:05;;;;;;;3.60;2.40;;;;;;;9.90;80.94;99601.20;106814;1263;60433;-37
2024/04/07 01:26:33;;;;;;;3.60;2.60;;;;;;;9.94;80.65;99604.84;106839;1267;73851;-37
2024/04/07 01:29:00;;;;;;;3.80;2.90;;;;;;;9.88;80.70;99596.04;106849;1262;67714;-37
2024/04/07 01:31:28;;;;;;;3.70;2.50;;;;;;;9.89;80.85;99608.85;106843;1264;72723;-38
2024/04/07 01:33:55;;;;;;;3.80;3.00;;;;;;;9.88;80.82;99608.42;106847;1263;60545;-38
2024/04/07 01:36:23;;;;;;;3.80;2.60;;;;;;;9.85;80.85;99611.07;106735;1264;59321;-37
2024/04/07 01:38:51;;;;;;;3.60;2.50;;;;;;;9.88;80.63;99617.23;106816;1264;73785;-38
2024/04/07 01:41:18;;;;;;;4.90;2.50;;;;;;;9.89;80.37;99616.27;106802;1264;67957;-37
2024/04/07 01:43:46;;;;;;;4.30;2.90;;;;;;;9.84;80.67;99623.33;106834;1264;72700;-37
2024/04/07 01:46:13;;;;;;;4.70;2.70;;;;;;;9.80;80.90;99627.08;106768;1263;60492;-37
2024/04/07 01:48:40;;;;;;;3.10;2.60;;;;;;;9.77;80.99;99634.08;106769;1263;60012;-38
2024/04/07 01:51:08;;;;;;;4.00;2.60;;;;;;;9.74;81.02;99633.66;106812;1267;73839;-38
2024/04/07 01:53:35;;;;;;;5.50;2.50;;;;;;;9.76;81.03;99633.73;106813;1263;67693;-38
2024/04/07 01:56:03;;;;;;;3.20;2.30;;;;;;;9.80;80.81;99635.83;106795;1264;72701;-38
2024/04/07 01:58:31;;;;;;;4.80;2.50;;;;;;;9.77;81.09;99646.67;106871;1264;60338;-38
2024/04/07 02:00:59;;;;;;;4.80;2.90;;;;;;;9.71;81.43;99655.48;106841;1264;60289;-38
2024/04/07 02:03:26;;;;;;;5.80;2.70;;;;;;;9.66;81.65;99658.04;106856;1263;73644;-38
2024/04/07 02:05:53;;;;;;;3.90;2.90;;;;;;;9.65;81.80;99659.09;106808;1263;66384;-38
2024/04/07 02:08:21;;;;;;;4.20;2.70;;;;;;;9.68;81.54;99654.77;106817;1264;72714;-37
2024/04/07 02:10:52;;;;;;;5.90;2.90;;;;;;;9.73;81.34;99654.44;106820;1263;60023;-37
2024/04/07 02:13:22;;;;;;;4.90;2.30;;;;;;;9.72;81.38;99651.64;106822;1262;60446;-37
2024/04/07 02:15:49;;;;;;;2.80;2.50;;;;;;;9.70;81.27;99652.05;106693;1263;72579;-37
2024/04/07 02:18:17;;;;;;;4.00;2.80;;;;;;;9.68;81.38;99656.02;105996;1264;1002894;-37
2024/04/07 02:20:51;;;;;;;5.80;3.10;;;;;;;9.66;81.23;99658.52;106714;1263;72788;-37
2024/04/07 02:23:19;;;;;;;4.60;2.80;;;;;;;9.69;80.99;99660.60;106774;1265;61732;-37
2024/04/07 02:25:47;;;;;;;4.30;2.80;;;;;;;9.72;80.80;99658.14;106710;1264;60358;-37
2024/04/07 02:28:14;;;;;;;4.40;2.70;;;;;;;9.71;80.86;99660.96;106704;1264;73901;-39
2024/04/07 02:30:42;;;;;;;4.20;2.80;;;;;;;9.67;80.78;99664.13;106751;1264;67631;-38
2024/04/07 02:33:10;;;;;;;5.80;3.10;;;;;;;9.64;80.75;99670.98;106680;1268;72655;-39
2024/04/07 02:35:37;;;;;;;3.20;2.70;;;;;;;9.60;80.65;99670.80;106675;1264;60512;-39
2024/04/07 02:38:05;;;;;;;5.00;2.40;;;;;;;9.62;80.58;99673.26;106734;1263;59681;-38
2024/04/07 02:40:32;;;;;;;3.60;2.60;;;;;;;9.67;80.25;99675.09;106709;1263;73850;-38
2024/04/07 02:42:59;;;;;;;4.30;2.70;;;;;;;9.66;80.19;99677.30;106733;1264;67597;-38
2024/04/07 02:48:13;;;;;;;3.10;2.60;;;;;;;9.57;80.20;99677.61;106723;1264;60439;-38
2024/04/07 02:50:40;;;;;;;3.90;2.50;;;;;;;9.51;80.44;99679.68;106731;1264;60397;-38
2024/04/07 02:53:08;;;;;;;5.10;2.50;;;;;;;9.51;80.51;99676.73;106759;1264;73875;-38
2024/04/07 02:55:35;;;;;;;3.30;2.70;;;;;;;9.51;80.52;99677.80;106730;1263;66435;-38
2024/04/07 02:58:03;;;;;;;3.60;2.60;;;;;;;9.48;80.84;99683.85;106714;1264;71383;-38
2024/04/07 03:00:31;;;;;;;5.20;3.10;;;;;;;9.44;80.95;99686.30;106727;1264;60040;-38
2024/04/07 03:02:58;;;;;;;3.30;2.70;;;;;;;9.42;80.93;99690.92;106726;1263;60296;-38
2024/04/07 03:05:25;;;;;;;3.60;2.80;;;;;;;9.38;81.18;99694.52;106718;1263;72433;-38
2024/04/07 03:07:53;;;;;;;4.40;2.70;;;;;;;9.41;81.19;99700.73;106702;1268;67885;-38
2024/04/07 03:10:20;;;;;;;4.90;2.90;;;;;;;9.47;81.12;99703.14;106615;1264;73154;-38
2024/04/07 03:12:48;;;;;;;4.50;2.60;;;;;;;9.46;81.08;99705.20;106654;1264;60310;-38
2024/04/07 03:15:15;;;;;;;5.00;2.80;;;;;;;9.45;81.18;99711.20;106832;1267;60309;-38
2024/04/07 03:17:43;;;;;;;4.10;2.60;;;;;;;9.43;81.18;99715.46;106844;1263;73949;-38
2024/04/07 03:20:10;;;;;;;3.40;2.60;;;;;;;9.40;81.20;99714.69;106868;1263;67640;-38
2024/04/07 03:22:37;;;;;;;4.60;2.70;;;;;;;9.41;80.84;99715.86;106833;1262;72802;-37
2024/04/07 03:25:05;;;;;;;4.00;2.60;;;;;;;9.40;80.80;99713.83;106843;1262;61225;-38
2024/04/07 03:27:32;;;;;;;4.30;2.50;;;;;;;9.36;81.05;99712.79;106791;1263;61325;-38
2024/04/07 03:30:00;;;;;;;4.40;2.90;;;;;;;9.32;81.34;99714.45;106786;1263;73367;-38
2024/04/07 03:32:28;;;;;;;2.80;2.40;;;;;;;9.30;81.44;99713.67;107030;1260;67748;-38
2024/04/07 03:34:56;;;;;;;4.10;2.50;;;;;;;9.28;81.39;99713.34;107018;1260;72718;-38
2024/04/07 03:37:23;;;;;;;3.60;2.30;;;;;;;9.31;81.32;99715.06;106912;1265;60846;-38
2024/04/07 03:39:51;;;;;;;4.50;2.60;;;;;;;9.36;81.14;99716.28;107020;1260;60453;-38
2024/04/07 03:42:19;;;;;;;3.10;2.20;;;;;;;9.36;81.14;99719.83;107065;1260;73771;-38
2024/04/07 03:44:46;;;;;;;3.70;2.50;;;;;;;9.31;81.09;99724.30;107040;1259;66293;-38
2024/04/07 03:47:14;;;;;;;2.90;2.20;;;;;;;9.24;81.24;99724.41;107000;1263;70764;-38
2024/04/07 03:49:41;;;;;;;4.70;2.40;;;;;;;9.21;81.29;99728.64;107021;1259;61890;-38
2024/04/07 03:52:09;;;;;;;3.60;2.40;;;;;;;9.24;81.11;99726.89;107029;1259;59010;-38
2024/04/07 03:54:36;;;;;;;3.60;2.50;;;;;;;9.28;81.01;99730.41;107056;1260;73405;-38
2024/04/07 03:57:04;;;;;;;4.90;2.60;;;;;;;9.31;81.11;99739.62;107051;1260;66300;-38
2024/04/07 03:59:31;;;;;;;3.30;2.50;;;;;;;9.31;81.27;99742.64;106922;1260;72714;-38
2024/04/07 04:02:00;;;;;;;4.80;2.60;;;;;;;9.32;81.54;99744.67;106993;1260;61230;-38
2024/04/07 04:04:27;;;;;;;4.50;2.60;;;;;;;9.34;81.73;99748.54;107021;1259;60043;-38
2024/04/07 04:06:55;;;;;;;3.40;2.40;;;;;;;9.40;81.82;99751.19;107020;1260;73453;-38
2024/04/07 04:09:22;;;;;;;5.80;3.10;;;;;;;9.48;81.98;99750.01;107021;1260;66353;-38
2024/04/07 04:11:52;;;;;;;2.80;2.40;;;;;;;9.52;82.17;99742.95;106997;1260;72667;-38
2024/04/07 04:14:22;;;;;;;5.20;2.50;;;;;;;9.54;82.52;99743.95;107017;1261;61225;-38
2024/04/07 04:16:50;;;;;;;3.30;2.50;;;;;;;9.56;82.75;99749.55;106870;1264;60475;-37
2024/04/07 04:19:18;;;;;;;4.80;2.60;;;;;;;9.59;82.85;99769.77;106942;1260;73352;-37
2024/04/07 04:21:45;;;;;;;3.20;2.30;;;;;;;9.67;82.91;99780.60;107066;1260;68132;-37
2024/04/07 04:24:13;;;;;;;3.50;2.20;;;;;;;9.75;83.11;99781.30;107055;1260;70601;-37
2024/04/07 04:26:41;;;;;;;3.80;2.60;;;;;;;9.80;83.34;99784.84;106954;1261;61129;-37
2024/04/07 04:29:08;;;;;;;3.70;2.30;;;;;;;9.84;83.61;99789.83;106964;1259;61111;-37
2024/04/07 04:31:35;;;;;;;3.50;2.60;;;;;;;9.87;83.80;99794.09;106958;1260;75166;-37
2024/04/07 04:34:03;;;;;;;5.10;2.50;;;;;;;9.95;83.75;99796.80;106952;1259;67583;-38
2024/04/07 04:36:30;;;;;;;6.70;2.70;;;;;;;10.04;83.71;99795.50;106879;1262;72289;-38
2024/04/07 04:38:57;;;;;;;3.50;2.00;;;;;;;10.09;83.67;99793.08;106924;1259;59516;-38
2024/04/07 04:41:25;;;;;;;2.80;2.50;;;;;;;10.10;83.61;99795.98;107069;1259;60027;-38
2024/04/07 04:43:52;;;;;;;4.10;2.70;;;;;;;10.04;83.90;99791.84;107010;1259;73336;-38
2024/04/07 04:46:20;;;;;;;4.60;2.70;;;;;;;10.11;84.07;99809.06;107033;1260;67613;-38
2024/04/07 04:48:48;;;;;;;5.30;2.80;;;;;;;10.15;84.25;99806.26;107064;1260;71415;-38
2024/04/07 04:51:17;;;;;;;3.70;2.60;;;;;;;10.21;84.44;99811.72;107004;1260;61207;-38
2024/04/07 04:53:44;;;;;;;7.30;2.90;;;;;;;10.25;84.90;99811.35;107042;1264;61154;-38
2024/04/07 04:56:11;;;;;;;4.80;3.30;;;;;;;10.27;85.18;99812.70;107064;1260;74668;-38
2024/04/07 04:58:39;;;;;;;3.40;2.40;;;;;;;10.28;85.43;99813.66;107044;1260;66420;-38
2024/04/07 05:01:11;;;;;;;4.00;2.70;;;;;;;10.31;85.49;99821.20;107033;1264;72690;-37
2024/04/07 05:03:38;;;;;;;4.00;2.50;;;;;;;10.38;85.71;99824.48;107063;1260;61743;-37
2024/04/07 05:06:09;;;;;;;5.40;2.60;;;;;;;10.45;86.04;99821.73;107044;1260;60023;-38
2024/04/07 05:08:38;;;;;;;4.20;2.70;;;;;;;10.51;86.44;99823.48;107049;1260;73467;-37
2024/04/07 05:11:06;;;;;;;3.70;3.20;;;;;;;10.55;86.74;99823.30;107040;1260;68329;-37
2024/04/07 05:13:33;;;;;;;3.40;2.40;;;;;;;10.65;86.67;99833.23;106930;1267;72802;-37
2024/04/07 05:16:02;;;;;;;4.70;2.70;;;;;;;10.73;86.43;99835.95;107043;1261;61288;-37
2024/04/07 05:18:30;;;;;;;6.80;2.60;;;;;;;10.76;86.45;99843.91;106999;1260;60915;-38
2024/04/07 05:21:03;;;;;;;4.70;3.00;;;;;;;10.79;86.96;99840.84;107018;1258;74667;-38
2024/04/07 05:23:35;;;;;;;10.80;3.30;;;;;;;10.81;86.91;99842.19;107060;1260;67582;-38
2024/04/07 05:26:18;;;;;;;7.30;3.20;;;;;;;10.87;86.70;99848.61;107035;1260;72716;-38
2024/04/07 05:28:46;;;;;;;6.60;3.00;;;;;;;10.95;86.52;99850.11;107066;1259;60822;-38
2024/04/07 05:31:13;;;;;;;4.80;3.10;;;;;;;11.02;86.75;99853.16;107034;1264;61932;-37
2024/04/07 05:33:45;;;;;;;3.70;2.50;;;;;;;11.09;86.94;99859.08;106959;1260;73782;-38
2024/04/07 05:36:12;;;;;;;4.30;2.90;;;;;;;11.16;87.08;99872.05;106973;1260;67601;-38
2024/04/07 05:38:41;;;;;;;3.90;2.60;;;;;;;11.28;86.84;99878.31;107236;1255;72719;-38
2024/04/07 05:41:08;;;;;;;5.80;3.20;;;;;;;11.40;86.67;99875.48;107290;1254;61709;-38
2024/04/07 05:43:37;;;;;;;4.70;2.50;;;;;;;11.47;86.35;99879.93;107338;1256;61240;-38
2024/04/07 05:46:05;;;;;;;4.50;2.50;;;;;;;11.51;86.57;99887.17;107282;1260;74710;-38
2024/04/07 05:48:33;;;;;;;6.20;2.50;;;;;;;11.58;86.68;99883.84;107309;1256;67857;-37
2024/04/07 05:51:00;;;;;;;5.40;2.50;;;;;;;11.70;86.42;99884.36;107376;1257;72666;-37
2024/04/07 05:53:29;;;;;;;4.30;2.60;;;;;;;11.83;85.67;99877.83;107347;1256;61023;-37
2024/04/07 05:55:57;;;;;;;4.40;2.40;;;;;;;11.88;85.47;99878.10;107266;1254;61131;-37
2024/04/07 05:58:24;;;;;;;4.60;2.60;;;;;;;11.91;84.98;99878.55;107297;1256;74655;-37
2024/04/07 06:00:52;;;;;;;5.70;2.20;;;;;;;11.92;84.85;99879.50;107322;1259;67611;-37
2024/04/07 06:03:19;;;;;;;5.00;2.10;;;;;;;12.01;84.70;99876.20;107331;1259;72772;-38
2024/04/07 06:05:47;;;;;;;4.50;2.10;;;;;;;12.10;83.97;99876.55;107318;1254;60965;-37
2024/04/07 06:08:14;;;;;;;4.30;1.90;;;;;;;12.14;83.56;99879.68;107292;1255;61073;-38
2024/04/07 06:10:41;;;;;;;6.70;2.90;;;;;;;12.17;83.25;99882.52;107306;1257;74699;-37
2024/04/07 06:13:09;;;;;;;7.80;2.90;;;;;;;12.22;83.08;99888.66;107275;1255;67437;-37
2024/04/07 06:15:39;;;;;;;6.90;2.90;;;;;;;12.33;82.68;99898.67;107305;1256;72697;-37
2024/04/07 06:18:07;;;;;;;7.00;2.50;;;;;;;12.41;82.01;99901.66;107240;1256;61301;-37
2024/04/07 06:20:34;;;;;;;7.10;2.40;;;;;;;12.43;81.62;99901.54;107282;1256;59922;-37
2024/04/07 06:23:02;;;;;;;5.70;2.10;;;;;;;12.45;81.27;99906.16;107296;1254;74635;-38
2024/04/07 06:25:29;;;;;;;5.40;2.10;;;;;;;12.49;81.33;99910.27;107328;1255;67592;-38
2024/04/07 06:27:56;;;;;;;5.70;2.10;;;;;;;12.56;81.47;99917.03;107287;1256;71445;-38
2024/04/07 06:30:24;;;;;;;6.00;2.40;;;;;;;12.70;80.87;99919.08;107291;1256;61224;-38
2024/04/07 06:32:51;;;;;;;4.80;2.30;;;;;;;12.82;80.24;99926.46;107308;1256;60087;-37
2024/04/07 06:35:19;;;;;;;6.40;2.10;;;;;;;12.91;80.14;99927.17;107275;1255;74649;-38
2024/04/07 06:37:46;;;;;;;4.20;1.60;;;;;;;12.98;79.35;99927.77;107309;1254;66271;-38
2024/04/07 06:40:13;;;;;;;3.80;1.60;;;;;;;13.05;78.90;99926.56;107293;1255;72149;-38
2024/04/07 06:42:41;;;;;;;6.40;1.90;;;;;;;13.11;78.17;99929.56;107245;1257;61685;-38
2024/04/07 06:45:08;;;;;;;4.40;1.80;;;;;;;13.19;77.65;99928.79;107230;1254;61209;-38
2024/04/07 06:47:37;;;;;;;5.10;1.70;;;;;;;13.28;76.47;99928.86;107258;1257;74724;-38
2024/04/07 06:50:05;;;;;;;4.00;1.70;;;;;;;13.35;76.13;99926.50;107325;1254;66327;-38
2024/04/07 06:52:32;;;;;;;3.10;1.30;;;;;;;13.43;75.45;99928.34;107366;1260;72722;-38
2024/04/07 06:55:01;;;;;;;5.20;1.70;;;;;;;13.50;75.05;99929.77;107290;1257;60453;-38
2024/04/07 06:57:29;;;;;;;4.50;1.80;;;;;;;13.55;74.53;99931.88;107365;1257;61080;-38
2024/04/07 06:59:56;;;;;;;5.60;1.80;;;;;;;13.64;74.52;99939.58;107300;1257;74758;-38
2024/04/07 07:02:23;;;;;;;4.40;1.50;;;;;;;13.75;73.41;99937.56;107218;1254;68021;-38
2024/04/07 07:04:51;;;;;;;5.30;2.10;;;;;;;13.91;73.14;99940.06;107219;1256;72751;-38
2024/04/07 07:07:18;;;;;;;4.10;1.60;;;;;;;14.05;73.35;99938.33;107281;1256;61099;-38
2024/04/07 07:09:46;;;;;;;4.60;1.60;;;;;;;14.22;73.09;99944.48;107313;1254;61230;-38
2024/04/07 07:12:13;;;;;;;3.00;1.50;;;;;;;14.38;72.12;99938.07;107289;1257;74768;-38
2024/04/07 07:14:41;;;;;;;2.90;1.40;;;;;;;14.50;71.81;99939.41;107290;1257;67720;-38
2024/04/07 07:17:09;;;;;;;4.50;1.90;;;;;;;14.64;70.68;99944.11;107258;1256;72678;-38
2024/04/07 07:19:36;;;;;;;3.10;1.60;;;;;;;14.81;70.38;99946.48;107289;1256;61653;-38
2024/04/07 07:22:04;;;;;;;3.40;1.50;;;;;;;15.01;69.27;99950.52;107290;1260;61196;-38
2024/04/07 07:24:31;;;;;;;4.10;1.80;;;;;;;15.16;68.52;99959.09;107283;1256;73367;-38
2024/04/07 07:26:58;;;;;;;3.20;1.60;;;;;;;15.34;68.38;99966.84;107315;1254;66430;-38
2024/04/07 07:29:26;;;;;;;4.10;1.80;;;;;;;15.50;67.08;99970.75;107317;1256;72753;-38
2024/04/07 07:31:56;;;;;;;7.30;2.10;;;;;;;15.58;65.94;99973.01;107278;1257;61198;-38
2024/04/07 07:34:24;;;;;;;4.70;1.60;;;;;;;15.64;66.07;99979.55;107366;1257;60418;-38
2024/04/07 07:36:52;;;;;;;3.00;1.50;;;;;;;15.68;65.55;99984.50;107335;1260;74675;-38
2024/04/07 07:39:20;;;;;;;4.50;1.60;;;;;;;15.72;64.35;99985.24;107320;1254;68065;-38
2024/04/07 07:41:47;;;;;;;4.90;2.20;;;;;;;15.78;63.72;99988.25;107274;1257;71773;-38
2024/04/07 07:44:14;;;;;;;4.80;1.50;;;;;;;15.87;62.80;99987.62;107272;1257;61305;-38
2024/04/07 07:46:42;;;;;;;4.70;1.70;;;;;;;15.96;62.51;99988.47;107311;1254;61113;-38
2024/04/07 07:49:09;;;;;;;4.10;1.40;;;;;;;16.08;62.63;99994.24;107350;1254;77149;-38
2024/04/07 07:51:36;;;;;;;4.10;1.70;;;;;;;16.25;61.82;99997.17;107285;1260;67708;-38
2024/04/07 07:54:04;;;;;;;3.70;1.60;;;;;;;16.44;61.07;99994.86;107292;1254;71394;-38
2024/04/07 07:56:31;;;;;;;4.70;1.80;;;;;;;16.60;60.18;99994.56;107259;1257;62367;-38
2024/04/07 07:58:59;;;;;;;3.50;1.30;;;;;;;16.69;59.35;99994.23;107291;1257;61251;-38
2024/04/07 08:01:26;;;;;;;3.60;1.60;;;;;;;16.79;59.13;99993.40;107205;1257;74768;-38
2024/04/07 08:03:54;;;;;;;4.50;1.70;;;;;;;16.97;59.49;99996.14;107272;1254;67580;-39
2024/04/07 08:06:21;;;;;;;3.60;1.50;;;;;;;17.18;58.46;99996.27;107231;1255;73011;-39
2024/04/07 08:08:48;;;;;;;4.20;1.60;;;;;;;17.38;57.96;99992.79;107231;1256;60973;-38
2024/04/07 08:11:16;;;;;;;3.00;1.30;;;;;;;17.53;57.17;99991.23;107310;1255;61241;-38
2024/04/07 08:13:43;;;;;;;4.40;1.20;;;;;;;17.63;55.70;99986.79;107253;1257;72611;-38
2024/04/07 08:16:11;;;;;;;3.80;1.60;;;;;;;17.56;54.37;99995.39;107250;1254;67758;-38
2024/04/07 08:18:40;;;;;;;3.20;1.40;;;;;;;17.34;55.22;99995.19;107280;1257;72720;-38
2024/04/07 08:21:08;;;;;;;5.30;1.40;;;;;;;17.14;55.48;99997.98;107304;1257;59976;-37
2024/04/07 08:23:35;;;;;;;4.90;1.40;;;;;;;17.03;55.86;99997.95;107304;1255;62689;-37
2024/04/07 08:26:04;;;;;;;4.40;1.70;;;;;;;17.02;56.45;99994.41;107246;1255;74620;-37
2024/04/07 08:28:32;;;;;;;6.60;1.90;;;;;;;17.10;57.09;99984.04;107292;1262;66478;-37
2024/04/07 08:31:01;;;;;;;4.00;1.40;;;;;;;17.24;56.94;99984.54;107271;1256;72723;-37
2024/04/07 08:33:28;;;;;;;4.70;1.80;;;;;;;17.40;55.80;99985.42;107264;1260;61295;-37
2024/04/07 08:35:57;;;;;;;4.00;1.50;;;;;;;17.54;55.99;99989.04;107343;1257;61306;-38
2024/04/07 08:38:24;;;;;;;5.00;1.60;;;;;;;17.56;54.59;99992.80;107289;1254;74665;-38
2024/04/07 08:40:52;;;;;;;4.30;1.50;;;;;;;17.51;54.43;99989.03;107295;1260;67406;-38
2024/04/07 08:43:19;;;;;;;4.80;1.70;;;;;;;17.43;53.29;99982.14;107139;1261;72776;-38
2024/04/07 08:45:48;;;;;;;5.00;1.50;;;;;;;17.36;53.15;99985.34;107286;1257;61121;-38
2024/04/07 08:48:17;;;;;;;4.70;1.60;;;;;;;17.43;53.04;99990.75;107354;1254;60957;-37
2024/04/07 08:50:47;;;;;;;3.30;1.30;;;;;;;17.52;53.73;99991.46;107309;1255;74715;-38
2024/04/07 08:53:15;;;;;;;5.60;1.80;;;;;;;17.69;53.88;99990.88;107273;1259;68088;-38
2024/04/07 08:55:43;;;;;;;4.00;1.50;;;;;;;17.91;53.08;99995.73;107159;1257;72271;-38
2024/04/07 08:58:13;;;;;;;3.00;1.40;;;;;;;18.09;51.24;100005.20;107312;1256;61886;-37
2024/04/07 09:00:43;;;;;;;6.30;1.60;;;;;;;18.24;51.39;100010.42;107138;1257;61296;-38
2024/04/07 09:03:11;;;;;;;5.90;1.60;;;;;;;18.45;50.77;100019.00;107342;1257;74619;-38
2024/04/07 09:05:39;;;;;;;6.20;1.70;;;;;;;18.60;48.89;100017.66;107329;1255;67906;-38
2024/04/07 09:08:06;;;;;;;4.50;1.80;;;;;;;18.60;48.43;100021.89;107133;1254;72691;-38
2024/04/07 09:10:34;;;;;;;4.90;1.90;;;;;;;18.66;49.06;100025.48;107262;1257;61244;-38
2024/04/07 09:13:02;;;;;;;5.00;2.00;;;;;;;18.81;49.69;100023.63;107290;1254;61100;-37
2024/04/07 09:15:29;;;;;;;6.20;1.90;;;;;;;19.02;50.96;100016.70;107286;1258;74738;-38
2024/04/07 09:17:56;;;;;;;5.90;1.90;;;;;;;19.18;50.07;100019.91;107316;1258;66801;-38
2024/04/07 09:20:24;;;;;;;5.10;1.60;;;;;;;19.20;49.75;100020.38;107043;1258;70454;-37
2024/04/07 09:22:51;;;;;;;7.20;2.30;;;;;;;19.11;49.67;100025.38;107292;1257;61045;-37
2024/04/07 09:25:19;;;;;;;4.60;1.90;;;;;;;18.94;49.39;100030.56;107288;1258;61153;-37
2024/04/07 09:27:46;;;;;;;4.30;1.50;;;;;;;18.75;49.63;100028.59;107227;1258;73627;-37
2024/04/07 09:30:15;;;;;;;6.60;1.70;;;;;;;18.60;49.60;100031.46;107154;1257;66320;-38
2024/04/07 09:32:43;;;;;;;4.00;1.40;;;;;;;18.62;49.50;100035.07;107293;1261;72864;-38
2024/04/07 09:35:10;;;;;;;5.40;1.80;;;;;;;18.82;49.05;100037.36;107245;1260;61180;-38
2024/04/07 09:37:44;;;;;;;7.60;1.70;;;;;;;18.99;48.10;100035.64;107250;1254;61128;-38
2024/04/07 09:40:12;;;;;;;3.90;1.50;;;;;;;18.98;48.30;100033.84;107320;1256;74715;-38
2024/04/07 09:42:40;;;;;;;8.20;1.70;;;;;;;18.85;48.10;100026.75;107304;1260;67729;-38
2024/04/07 09:45:11;;;;;;;3.00;1.20;;;;;;;18.73;49.12;100034.64;107283;1258;71825;-38
2024/04/07 09:47:43;;;;;;;3.80;1.50;;;;;;;18.59;49.17;100040.41;107147;1259;61233;-38
2024/04/07 09:50:12;;;;;;;8.10;1.90;;;;;;;18.45;48.44;100041.67;107338;1257;61183;-38
2024/04/07 09:52:42;;;;;;;5.50;1.50;;;;;;;18.26;48.73;100042.41;107317;1257;74698;-38
2024/04/07 09:55:11;;;;;;;7.10;1.70;;;;;;;18.11;49.59;100041.33;107297;1258;68017;-38
2024/04/07 09:57:39;;;;;;;5.30;1.50;;;;;;;18.08;49.90;100036.63;107280;1258;71368;-38
2024/04/07 10:00:10;;;;;;;4.00;1.50;;;;;;;18.13;50.13;100038.67;107252;1263;60128;-38
2024/04/07 10:02:38;;;;;;;3.60;1.80;;;;;;;18.41;49.55;100045.38;107290;1257;61386;-38
2024/04/07 10:05:06;;;;;;;5.50;1.60;;;;;;;18.80;48.54;100039.09;107283;1257;74731;-39
2024/04/07 10:07:34;;;;;;;5.20;1.70;;;;;;;19.26;48.35;100039.04;107268;1257;68603;-39
2024/04/07 10:10:02;;;;;;;5.80;1.50;;;;;;;19.85;46.81;100035.75;107176;1263;71437;-38
2024/04/07 10:12:30;;;;;;;5.10;1.70;;;;;;;20.35;43.95;100034.30;107276;1257;61444;-37
2024/04/07 10:14:59;;;;;;;3.70;1.40;;;;;;;20.69;42.75;100035.29;107273;1257;61243;-38
2024/04/07 10:17:27;;;;;;;4.70;1.60;;;;;;;20.96;42.38;100039.21;107226;1257;75255;-38
2024/04/07 10:19:55;;;;;;;4.40;1.40;;;;;;;21.21;42.35;100040.95;107279;1257;67026;-38
2024/04/07 10:22:23;;;;;;;3.30;1.20;;;;;;;21.57;41.19;100038.95;107228;1260;72750;-38
2024/04/07 10:24:51;;;;;;;3.60;1.30;;;;;;;21.81;39.95;100038.98;107315;1258;61061;-38
2024/04/07 10:27:23;;;;;;;3.80;1.30;;;;;;;21.77;39.04;100035.10;107329;1263;61195;-38
2024/04/07 10:29:54;;;;;;;5.90;1.70;;;;;;;21.48;39.10;100036.81;107274;1257;73138;-38
2024/04/07 10:32:26;;;;;;;4.80;1.50;;;;;;;21.10;39.77;100041.95;107348;1260;66498;-38
2024/04/07 10:35:08;;;;;;;4.00;1.50;;;;;;;20.83;41.21;100041.26;107312;1260;72719;-38
2024/04/07 10:37:37;;;;;;;4.70;1.70;;;;;;;20.88;42.30;100039.17;107344;1260;61154;-38
2024/04/07 10:40:08;;;;;;;2.80;1.20;;;;;;;21.08;40.58;100039.68;107368;1260;61070;-38
2024/04/07 10:42:36;;;;;;;4.50;1.80;;;;;;;21.05;40.65;100039.66;107308;1260;74730;-38
2024/04/07 10:45:08;;;;;;;4.10;1.60;;;;;;;20.85;41.07;100040.45;107323;1260;67650;-38
2024/04/07 10:47:36;;;;;;;6.00;1.20;;;;;;;20.64;41.07;100039.84;107182;1257;72768;-38
2024/04/07 10:50:04;;;;;;;5.10;1.60;;;;;;;20.39;41.20;100039.30;107228;1257;61138;-38
2024/04/07 10:52:32;;;;;;;3.60;1.60;;;;;;;20.14;42.06;100041.58;107618;1253;61030;-38
2024/04/07 10:54:59;;;;;;;4.20;1.40;;;;;;;19.97;43.20;100038.80;107730;1257;74754;-38
2024/04/07 10:57:27;;;;;;;5.00;1.80;;;;;;;19.84;43.59;100041.28;107732;1257;66547;-38
2024/04/07 10:59:54;;;;;;;4.30;2.90;;;;;;;19.73;43.79;100046.32;107615;1256;72742;-38
2024/04/07 11:02:23;;;;;;;5.50;2.10;;;;;;;19.59;43.33;100051.12;107710;1256;61132;-38
2024/04/07 11:04:50;;;;;;;2.90;1.60;;;;;;;19.40;43.98;100048.88;107633;1257;60036;-38
2024/04/07 11:07:19;;;;;;;4.70;2.00;;;;;;;19.27;44.40;100053.80;107688;1251;74716;-39
2024/04/07 11:09:48;;;;;;;3.10;1.40;;;;;;;19.19;44.70;100059.17;107722;1251;68496;-38
2024/04/07 11:12:16;;;;;;;3.30;1.40;;;;;;;19.18;45.66;100060.28;107720;1256;72735;-38
2024/04/07 11:14:44;;;;;;;4.10;1.50;;;;;;;19.19;45.48;100064.69;107760;1254;61304;-39
2024/04/07 11:17:12;;;;;;;6.10;1.80;;;;;;;19.19;45.62;100067.59;107752;1252;61851;-39
2024/04/07 11:19:39;;;;;;;4.20;2.10;;;;;;;19.15;45.41;100067.52;107727;1251;74728;-39
2024/04/07 11:22:07;;;;;;;5.60;2.90;;;;;;;19.05;45.59;100071.51;107774;1251;68061;-38
2024/04/07 11:24:34;;;;;;;6.70;2.40;;;;;;;18.97;45.64;100073.73;107701;1257;72746;-38
2024/04/07 11:27:01;;;;;;;4.00;1.70;;;;;;;18.87;45.39;100073.06;107527;1251;61132;-38
2024/04/07 11:29:29;;;;;;;3.00;1.80;;;;;;;18.74;45.61;100075.85;107602;1251;201967;-38
2024/04/07 11:33:16;;;;;;;4.20;1.90;;;;;;;18.59;46.37;100075.10;104074;1292;601307;-38